createdAt,value
2018-12-24T00:01:08.379Z,10.10
2018-12-24T00:03:52.376Z,9.70
2018-12-24T00:06:35.795Z,9.50
2018-12-24T00:09:19.066Z,9.50
2018-12-24T00:12:07.027Z,9.40
2018-12-24T00:14:46.875Z,9.40
2018-12-24T00:17:30.530Z,9.40
2018-12-24T00:20:13.869Z,9.40
2018-12-24T00:22:57.077Z,9.40
2018-12-24T00:25:40.262Z,9.40
2018-12-24T00:28:24.046Z,9.40
2018-12-24T00:31:07.643Z,9.40
2018-12-24T00:33:50.604Z,9.40
2018-12-24T00:36:34.246Z,9.40
2018-12-24T00:39:17.448Z,9.40
2018-12-24T00:42:01.147Z,9.40
2018-12-24T00:44:44.670Z,9.50
2018-12-24T00:47:28.126Z,9.50
2018-12-24T00:50:11.663Z,9.40
2018-12-24T00:52:55.250Z,9.40
2018-12-24T00:55:38.543Z,9.00
2018-12-24T00:58:21.579Z,8.50
2018-12-24T01:01:04.832Z,8.20
2018-12-24T01:03:47.994Z,7.90
2018-12-24T01:06:31.431Z,7.70
2018-12-24T01:09:15.043Z,7.60
2018-12-24T01:11:58.097Z,7.50
2018-12-24T01:17:28.911Z,7.50
2018-12-24T01:20:12.476Z,7.40
2018-12-24T01:22:55.973Z,7.40
2018-12-24T01:25:39.258Z,7.30
2018-12-24T01:28:22.088Z,7.30
2018-12-24T01:31:05.818Z,7.10
2018-12-24T01:33:48.959Z,7.00
2018-12-24T01:36:31.771Z,6.80
2018-12-24T01:39:15.318Z,6.80
2018-12-24T01:41:58.711Z,6.70
2018-12-24T01:44:42.490Z,6.70
2018-12-24T01:47:26.163Z,6.70
2018-12-24T01:50:09.858Z,6.80
2018-12-24T01:52:52.916Z,6.70
2018-12-24T01:55:35.771Z,6.70
2018-12-24T01:58:18.897Z,6.60
2018-12-24T02:01:02.163Z,6.60
2018-12-24T02:03:45.275Z,6.60
2018-12-24T02:06:28.530Z,6.50
2018-12-24T02:09:11.898Z,6.50
2018-12-24T02:11:55.631Z,6.50
2018-12-24T02:14:39.089Z,6.40
2018-12-24T02:17:21.876Z,6.40
2018-12-24T02:20:05.621Z,6.30
2018-12-24T02:22:49.166Z,6.30
2018-12-24T02:25:32.693Z,6.20
2018-12-24T02:28:15.615Z,6.20
2018-12-24T02:30:59.262Z,6.10
2018-12-24T02:33:42.113Z,6.10
2018-12-24T02:36:29.234Z,6.10
2018-12-24T02:39:12.247Z,6.10
2018-12-24T02:41:55.777Z,6.00
2018-12-24T02:44:39.155Z,6.00
2018-12-24T02:47:22.781Z,5.90
2018-12-24T02:50:06.252Z,5.80
2018-12-24T02:52:49.725Z,5.70
2018-12-24T02:55:33.397Z,5.60
2018-12-24T02:58:17.028Z,5.60
2018-12-24T03:01:00.400Z,5.60
2018-12-24T03:03:43.970Z,5.60
2018-12-24T03:06:26.972Z,5.70
2018-12-24T03:09:09.771Z,5.70
2018-12-24T03:11:53.344Z,5.70
2018-12-24T03:14:37.309Z,5.60
2018-12-24T03:17:20.870Z,5.60
2018-12-24T03:20:03.746Z,5.50
2018-12-24T03:22:46.758Z,5.50
2018-12-24T03:25:29.754Z,5.50
2018-12-24T03:28:13.130Z,5.40
2018-12-24T03:30:55.060Z,5.30
2018-12-24T03:33:38.609Z,5.20
2018-12-24T03:36:21.617Z,5.20
2018-12-24T03:39:05.249Z,5.20
2018-12-24T03:41:48.957Z,5.20
2018-12-24T03:44:32.644Z,5.20
2018-12-24T03:47:15.611Z,5.20
2018-12-24T03:49:58.397Z,5.20
2018-12-24T03:52:42.009Z,5.20
2018-12-24T03:55:25.248Z,5.10
2018-12-24T03:58:08.399Z,5.00
2018-12-24T04:00:51.607Z,5.00
2018-12-24T04:03:35.125Z,4.90
2018-12-24T04:06:18.171Z,4.80
2018-12-24T04:09:01.418Z,4.70
2018-12-24T04:11:45.064Z,4.80
2018-12-24T04:14:27.995Z,4.70
2018-12-24T04:17:11.127Z,4.70
2018-12-24T04:19:53.879Z,4.70
2018-12-24T04:22:38.364Z,4.70
2018-12-24T04:25:21.172Z,4.80
2018-12-24T04:28:04.679Z,4.80
2018-12-24T04:30:47.546Z,4.70
2018-12-24T04:33:30.904Z,4.60
2018-12-24T04:36:14.321Z,4.60
2018-12-24T04:38:58.465Z,4.40
2018-12-24T04:41:41.564Z,4.40
2018-12-24T04:44:24.343Z,4.30
2018-12-24T04:47:07.836Z,4.20
2018-12-24T04:49:50.897Z,4.20
2018-12-24T04:52:34.222Z,4.20
2018-12-24T04:55:17.250Z,4.20
2018-12-24T04:58:00.616Z,4.20
2018-12-24T05:00:44.359Z,4.30
2018-12-24T05:03:27.451Z,4.30
2018-12-24T05:06:10.668Z,4.30
2018-12-24T05:08:53.762Z,4.30
2018-12-24T05:11:37.142Z,4.30
2018-12-24T05:14:20.810Z,4.20
2018-12-24T05:17:04.134Z,4.20
2018-12-24T05:19:47.272Z,4.20
2018-12-24T05:22:30.793Z,4.30
2018-12-24T05:25:14.271Z,4.30
2018-12-24T05:27:57.864Z,4.30
2018-12-24T05:30:40.655Z,4.30
2018-12-24T05:33:23.777Z,4.30
2018-12-24T05:36:06.542Z,4.30
2018-12-24T05:38:49.607Z,4.40
2018-12-24T05:41:32.537Z,4.40
2018-12-24T05:44:16.005Z,4.40
2018-12-24T05:46:59.046Z,4.40
2018-12-24T05:49:42.770Z,4.40
2018-12-24T05:52:26.115Z,4.40
2018-12-24T05:55:09.617Z,4.40
2018-12-24T05:57:53.166Z,4.40
2018-12-24T06:00:36.357Z,4.40
2018-12-24T06:03:19.384Z,4.40
2018-12-24T06:06:02.702Z,4.50
2018-12-24T06:08:45.929Z,4.50
2018-12-24T06:11:29.425Z,4.50
2018-12-24T06:14:12.348Z,4.40
2018-12-24T06:16:56.483Z,4.40
2018-12-24T06:19:39.486Z,4.40
2018-12-24T06:22:22.391Z,4.40
2018-12-24T06:25:05.562Z,4.40
2018-12-24T06:27:48.349Z,4.40
2018-12-24T06:30:31.514Z,4.40
2018-12-24T06:33:14.349Z,4.40
2018-12-24T06:35:57.251Z,4.50
2018-12-24T06:38:40.446Z,4.40
2018-12-24T06:41:23.329Z,4.40
2018-12-24T06:44:07.130Z,4.40
2018-12-24T06:46:50.640Z,4.50
2018-12-24T06:49:34.170Z,4.50
2018-12-24T06:52:17.249Z,4.50
2018-12-24T06:55:00.961Z,4.50
2018-12-24T06:57:44.571Z,4.50
2018-12-24T07:00:27.954Z,4.50
2018-12-24T07:03:11.158Z,4.60
2018-12-24T07:05:55.462Z,4.60
2018-12-24T07:08:37.307Z,4.60
2018-12-24T07:11:20.898Z,4.60
2018-12-24T07:14:04.568Z,4.60
2018-12-24T07:16:47.629Z,4.70
2018-12-24T07:19:31.285Z,4.70
2018-12-24T07:22:14.290Z,4.70
2018-12-24T07:24:58.115Z,4.70
2018-12-24T07:27:41.786Z,4.80
2018-12-24T07:30:25.534Z,4.80
2018-12-24T07:33:08.881Z,4.80
2018-12-24T07:35:52.291Z,4.80
2018-12-24T07:38:35.811Z,4.90
2018-12-24T07:41:19.052Z,4.90
2018-12-24T07:44:02.276Z,4.90
2018-12-24T07:46:45.621Z,4.90
2018-12-24T07:49:28.880Z,4.90
2018-12-24T07:52:12.528Z,5.00
2018-12-24T07:54:56.816Z,5.00
2018-12-24T07:57:39.612Z,5.10
2018-12-24T08:00:22.688Z,5.10
2018-12-24T08:03:05.729Z,5.20
2018-12-24T08:05:49.096Z,5.20
2018-12-24T08:08:32.168Z,5.30
2018-12-24T08:11:16.392Z,5.30
2018-12-24T08:13:59.431Z,5.40
2018-12-24T08:16:43.122Z,5.40
2018-12-24T08:19:27.183Z,5.40
2018-12-24T08:22:10.827Z,5.40
2018-12-24T08:24:53.791Z,5.40
2018-12-24T08:27:37.375Z,5.40
2018-12-24T08:30:20.294Z,5.50
2018-12-24T08:33:03.217Z,5.50
2018-12-24T08:35:46.787Z,5.60
2018-12-24T08:38:30.371Z,5.60
2018-12-24T08:41:14.183Z,5.60
2018-12-24T08:43:57.719Z,5.70
2018-12-24T08:46:40.826Z,5.90
2018-12-24T08:49:24.384Z,6.00
2018-12-24T08:52:06.266Z,6.10
2018-12-24T08:54:49.910Z,6.20
2018-12-24T08:57:33.486Z,6.10
2018-12-24T09:00:16.751Z,6.00
2018-12-24T09:02:59.703Z,6.00
2018-12-24T09:05:42.861Z,6.00
2018-12-24T09:08:26.493Z,6.00
2018-12-24T09:11:09.839Z,6.00
2018-12-24T09:13:53.194Z,6.00
2018-12-24T09:16:36.721Z,6.10
2018-12-24T09:19:19.973Z,6.10
2018-12-24T09:22:04.342Z,6.20
2018-12-24T09:25:37.727Z,6.20
2018-12-24T09:28:20.386Z,6.20
2018-12-24T09:31:03.817Z,6.30
2018-12-24T09:33:46.414Z,6.40
2018-12-24T09:36:28.974Z,6.40
2018-12-24T09:39:13.542Z,6.50
2018-12-24T09:41:57.064Z,6.60
2018-12-24T09:44:39.893Z,6.60
2018-12-24T09:47:23.429Z,6.70
2018-12-24T09:50:06.065Z,6.80
2018-12-24T09:52:49.510Z,6.90
2018-12-24T09:55:32.858Z,7.00
2018-12-24T09:58:16.198Z,7.00
2018-12-24T10:01:00.253Z,7.10
2018-12-24T10:03:43.216Z,7.10
2018-12-24T10:06:26.789Z,7.10
2018-12-24T10:09:09.353Z,7.00
2018-12-24T10:11:52.002Z,6.90
2018-12-24T10:14:36.439Z,6.80
2018-12-24T10:17:19.823Z,6.80
2018-12-24T10:20:02.306Z,6.80
2018-12-24T10:22:44.887Z,6.80
2018-12-24T10:25:27.569Z,6.90
2018-12-24T10:28:10.259Z,6.90
2018-12-24T10:30:53.086Z,6.80
2018-12-24T10:33:35.914Z,6.80
2018-12-24T10:36:19.414Z,6.80
2018-12-24T10:39:02.177Z,6.70
2018-12-24T10:41:45.150Z,6.70
2018-12-24T10:44:27.879Z,6.60
2018-12-24T10:47:11.441Z,6.70
2018-12-24T10:49:54.072Z,6.60
2018-12-24T10:52:37.519Z,6.60
2018-12-24T10:55:21.310Z,6.50
2018-12-24T10:58:03.847Z,6.50
2018-12-24T11:00:46.727Z,6.50
2018-12-24T11:03:29.370Z,6.50
2018-12-24T11:06:12.588Z,6.50
2018-12-24T11:08:55.716Z,6.50
2018-12-24T11:11:38.301Z,6.60
2018-12-24T11:14:21.669Z,6.60
2018-12-24T11:17:05.083Z,6.60
2018-12-24T11:19:36.700Z,6.60
2018-12-24T11:22:19.315Z,6.70
2018-12-24T11:25:02.022Z,6.70
2018-12-24T11:27:45.688Z,6.70
2018-12-24T11:30:30.063Z,6.70
2018-12-24T11:33:13.349Z,6.80
2018-12-24T11:35:56.783Z,6.80
2018-12-24T11:38:39.440Z,6.80
2018-12-24T11:41:22.007Z,6.80
2018-12-24T11:44:04.596Z,6.90
2018-12-24T11:46:47.210Z,6.80
2018-12-24T11:49:29.843Z,6.90
2018-12-24T11:52:12.459Z,6.90
2018-12-24T11:54:54.972Z,7.00
2018-12-24T11:57:38.177Z,7.10
2018-12-24T12:00:20.799Z,7.20
2018-12-24T12:03:03.828Z,7.30
2018-12-24T12:05:47.294Z,7.40
2018-12-24T12:08:29.894Z,7.40
2018-12-24T12:11:13.420Z,7.40
2018-12-24T12:13:56.763Z,7.50
2018-12-24T12:16:40.485Z,7.50
2018-12-24T12:19:23.775Z,7.60
2018-12-24T12:22:07.046Z,7.40
2018-12-24T12:24:50.366Z,7.30
2018-12-24T12:27:33.290Z,7.20
2018-12-24T12:30:16.464Z,7.10
2018-12-24T12:33:01.658Z,7.10
2018-12-24T12:35:44.621Z,7.00
2018-12-24T12:38:29.896Z,7.00
2018-12-24T12:41:12.365Z,6.90
2018-12-24T12:43:54.933Z,6.90
2018-12-24T12:46:38.350Z,7.00
2018-12-24T12:49:22.149Z,7.00
2018-12-24T12:52:05.655Z,7.10
2018-12-24T12:54:49.139Z,7.20
2018-12-24T12:57:30.616Z,7.20
2018-12-24T13:00:13.208Z,7.30
2018-12-24T13:02:55.763Z,7.40
2018-12-24T13:05:38.481Z,7.30
2018-12-24T13:08:23.809Z,7.10
2018-12-24T13:11:06.515Z,6.90
2018-12-24T13:13:51.200Z,6.60
2018-12-24T13:16:33.966Z,6.30
2018-12-24T13:19:16.591Z,6.20
2018-12-24T13:22:04.302Z,6.10
2018-12-24T13:24:43.567Z,6.10
2018-12-24T13:27:27.123Z,6.10
2018-12-24T13:30:11.378Z,6.20
2018-12-24T13:32:54.034Z,6.20
2018-12-24T13:35:36.679Z,6.10
2018-12-24T13:38:19.279Z,6.00
2018-12-24T13:41:01.907Z,6.00
2018-12-24T13:43:44.551Z,6.00
2018-12-24T13:46:27.083Z,6.00
2018-12-24T13:49:09.723Z,6.00
2018-12-24T13:51:52.334Z,5.90
2018-12-24T13:54:35.898Z,5.80
2018-12-24T13:57:19.158Z,5.60
2018-12-24T14:00:01.705Z,5.40
2018-12-24T14:02:45.656Z,5.30
2018-12-24T14:05:28.314Z,5.20
2018-12-24T14:08:10.954Z,5.10
2018-12-24T14:10:54.233Z,5.10
2018-12-24T14:13:37.598Z,5.10
2018-12-24T14:16:20.193Z,5.20
2018-12-24T14:19:03.551Z,5.20
2018-12-24T14:21:46.332Z,5.30
2018-12-24T14:24:29.102Z,5.50
2018-12-24T14:27:12.567Z,5.70
2018-12-24T14:29:55.290Z,5.90
2018-12-24T14:32:37.984Z,5.90
2018-12-24T14:35:20.489Z,5.90
2018-12-24T14:38:03.110Z,5.90
2018-12-24T14:40:46.410Z,5.80
2018-12-24T14:43:29.824Z,5.80
2018-12-24T14:46:13.493Z,5.70
2018-12-24T14:48:56.945Z,5.50
2018-12-24T14:51:39.711Z,5.40
2018-12-24T14:54:22.237Z,5.40
2018-12-24T14:57:05.584Z,5.30
2018-12-24T14:59:37.136Z,5.30
2018-12-24T15:02:20.003Z,5.30
2018-12-24T15:05:01.510Z,5.20
2018-12-24T15:07:45.018Z,5.20
2018-12-24T15:10:28.300Z,5.20
2018-12-24T15:13:11.672Z,5.20
2018-12-24T15:15:55.130Z,5.20
2018-12-24T15:18:37.756Z,5.20
2018-12-24T15:21:20.351Z,5.20
2018-12-24T15:24:03.760Z,5.20
2018-12-24T15:26:47.364Z,5.20
2018-12-24T15:29:30.141Z,5.20
2018-12-24T15:32:12.705Z,5.10
2018-12-24T15:34:56.211Z,5.10
2018-12-24T15:37:38.827Z,5.10
2018-12-24T15:40:21.809Z,5.00
2018-12-24T15:43:04.352Z,5.00
2018-12-24T15:45:48.038Z,5.00
2018-12-24T15:48:34.874Z,5.00
2018-12-24T15:51:17.429Z,5.00
2018-12-24T15:54:00.163Z,5.00
2018-12-24T15:56:43.623Z,5.10
2018-12-24T15:59:26.102Z,5.10
2018-12-24T16:02:09.883Z,5.10
2018-12-24T16:04:53.302Z,5.10
2018-12-24T16:07:35.871Z,5.10
2018-12-24T16:10:17.470Z,5.20
2018-12-24T16:13:01.599Z,5.10
2018-12-24T16:15:45.268Z,5.20
2018-12-24T16:18:27.867Z,5.20
2018-12-24T16:20:59.272Z,5.20
2018-12-24T16:23:42.444Z,5.20
2018-12-24T16:26:25.259Z,5.20
2018-12-24T16:29:09.746Z,5.20
2018-12-24T16:31:52.497Z,5.20
2018-12-24T16:34:35.238Z,5.20
2018-12-24T16:37:18.020Z,5.20
2018-12-24T16:40:00.859Z,5.20
2018-12-24T16:42:44.202Z,5.20
2018-12-24T16:45:26.739Z,5.10
2018-12-24T16:48:09.972Z,5.00
2018-12-24T16:50:53.235Z,4.90
2018-12-24T16:53:40.487Z,5.00
2018-12-24T16:56:21.713Z,5.10
2018-12-24T16:59:04.298Z,5.10
2018-12-24T17:01:47.683Z,4.90
2018-12-24T17:04:30.492Z,4.70
2018-12-24T17:07:13.106Z,4.50
2018-12-24T17:09:55.926Z,4.40
2018-12-24T17:12:39.323Z,4.30
2018-12-24T17:15:21.879Z,4.20
2018-12-24T17:18:04.775Z,4.20
2018-12-24T17:20:47.251Z,4.10
2018-12-24T17:23:29.947Z,4.10
2018-12-24T17:26:12.754Z,4.10
2018-12-24T17:28:55.515Z,4.10
2018-12-24T17:31:38.960Z,4.10
2018-12-24T17:34:21.491Z,4.10
2018-12-24T17:37:04.912Z,4.10
2018-12-24T17:39:48.424Z,4.10
2018-12-24T17:42:31.007Z,4.10
2018-12-24T17:45:13.705Z,4.10
2018-12-24T17:47:56.415Z,4.10
2018-12-24T17:50:39.902Z,4.20
2018-12-24T17:53:22.399Z,4.20
2018-12-24T17:56:05.614Z,4.30
2018-12-24T17:58:48.311Z,4.30
2018-12-24T18:01:31.715Z,4.30
2018-12-24T18:04:14.546Z,4.20
2018-12-24T18:06:58.026Z,4.10
2018-12-24T18:09:40.638Z,4.10
2018-12-24T18:12:24.254Z,4.10
2018-12-24T18:15:07.008Z,4.00
2018-12-24T18:17:50.483Z,3.90
2018-12-24T18:20:33.112Z,3.80
2018-12-24T18:23:15.890Z,3.70
2018-12-24T18:25:58.572Z,3.70
2018-12-24T18:28:42.115Z,3.60
2018-12-24T18:31:25.030Z,3.50
2018-12-24T18:34:08.283Z,3.50
2018-12-24T18:36:50.869Z,3.40
2018-12-24T18:39:33.578Z,3.40
2018-12-24T18:42:17.032Z,3.30
2018-12-24T18:45:00.181Z,3.30
2018-12-24T18:47:42.851Z,3.30
2018-12-24T18:50:25.709Z,3.30
2018-12-24T18:53:08.494Z,3.30
2018-12-24T18:55:51.971Z,3.30
2018-12-24T18:58:34.481Z,3.30
2018-12-24T19:01:17.279Z,3.20
2018-12-24T19:04:00.643Z,3.20
2018-12-24T19:06:45.149Z,3.10
2018-12-24T19:09:27.955Z,3.00
2018-12-24T19:12:11.327Z,3.10
2018-12-24T19:14:53.955Z,3.00
2018-12-24T19:17:41.430Z,3.00
2018-12-24T19:20:20.946Z,3.00
2018-12-24T19:23:04.469Z,3.00
2018-12-24T19:25:47.874Z,3.00
2018-12-24T19:28:30.624Z,3.10
2018-12-24T19:31:13.355Z,3.10
2018-12-24T19:33:56.008Z,3.20
2018-12-24T19:36:38.620Z,3.20
2018-12-24T19:39:21.172Z,3.20
2018-12-24T19:42:04.707Z,3.10
2018-12-24T19:44:47.279Z,3.10
2018-12-24T19:47:29.829Z,3.10
2018-12-24T19:50:13.163Z,3.10
2018-12-24T19:52:55.745Z,3.00
2018-12-24T19:55:38.443Z,3.10
2018-12-24T19:58:21.233Z,3.10
2018-12-24T20:01:03.881Z,3.10
2018-12-24T20:03:45.395Z,3.20
2018-12-24T20:06:27.985Z,3.20
2018-12-24T20:09:11.142Z,3.20
2018-12-24T20:11:54.589Z,3.20
2018-12-24T20:14:37.260Z,3.20
2018-12-24T20:17:20.220Z,3.20
2018-12-24T20:20:03.631Z,3.20
2018-12-24T20:22:46.259Z,3.20
2018-12-24T20:25:29.423Z,3.20
2018-12-24T20:28:12.043Z,3.20
2018-12-24T20:30:55.405Z,3.20
2018-12-24T20:33:38.002Z,3.10
2018-12-24T20:36:20.690Z,3.20
2018-12-24T20:39:04.602Z,3.20
2018-12-24T20:41:47.963Z,3.20
2018-12-24T20:44:31.293Z,3.20
2018-12-24T20:47:14.043Z,3.20
2018-12-24T20:49:57.569Z,3.20
2018-12-24T20:52:40.177Z,3.20
2018-12-24T20:55:22.775Z,3.20
2018-12-24T20:58:06.271Z,3.20
2018-12-24T21:00:48.760Z,3.20
2018-12-24T21:03:31.728Z,3.20
2018-12-24T21:06:14.891Z,3.20
2018-12-24T21:08:57.464Z,3.20
2018-12-24T21:11:40.173Z,3.20
2018-12-24T21:14:22.742Z,3.20
2018-12-24T21:17:06.528Z,3.20
2018-12-24T21:19:50.855Z,3.30
2018-12-24T21:22:33.579Z,3.30
2018-12-24T21:25:05.271Z,3.30
2018-12-24T21:27:55.419Z,3.30
2018-12-24T21:30:39.855Z,3.30
2018-12-24T21:33:22.331Z,3.30
2018-12-24T21:36:05.817Z,3.20
2018-12-24T21:38:48.598Z,3.10
2018-12-24T21:41:50.866Z,3.10
2018-12-24T21:44:38.524Z,3.10
2018-12-24T21:47:21.047Z,3.00
2018-12-24T21:50:04.525Z,3.00
2018-12-24T21:52:47.211Z,3.00
2018-12-24T21:55:30.566Z,3.00
2018-12-24T21:58:14.016Z,2.90
2018-12-24T22:00:57.320Z,2.90
2018-12-24T22:03:39.891Z,2.80
2018-12-24T22:06:22.508Z,2.80
2018-12-24T22:09:05.208Z,2.70
2018-12-24T22:11:47.891Z,2.70
2018-12-24T22:14:32.442Z,2.70
2018-12-24T22:17:15.039Z,2.60
2018-12-24T22:20:02.061Z,2.50
2018-12-24T22:22:45.424Z,2.40
2018-12-24T22:25:29.014Z,2.30
2018-12-24T22:28:11.822Z,2.10
2018-12-24T22:30:54.354Z,1.90
2018-12-24T22:33:37.032Z,1.70
2018-12-24T22:36:19.708Z,1.60
2018-12-24T22:39:03.308Z,1.40
2018-12-24T22:41:45.836Z,1.40
2018-12-24T22:44:28.553Z,1.30
2018-12-24T22:47:11.951Z,1.20
2018-12-24T22:49:55.432Z,1.30
2018-12-24T22:52:38.781Z,1.60
2018-12-24T22:55:21.369Z,1.70
2018-12-24T22:58:03.887Z,1.90
2018-12-24T23:00:47.722Z,2.00
2018-12-24T23:03:32.070Z,2.10
2018-12-24T23:06:14.576Z,2.20
2018-12-24T23:08:57.566Z,2.30
2018-12-24T23:11:40.281Z,2.30
2018-12-24T23:14:23.547Z,2.40
2018-12-24T23:17:06.891Z,2.40
2018-12-24T23:19:49.519Z,2.30
2018-12-24T23:22:32.961Z,2.30
2018-12-24T23:25:16.432Z,2.30
2018-12-24T23:27:59.062Z,2.40
2018-12-24T23:30:41.898Z,2.40
2018-12-24T23:33:25.354Z,2.50
2018-12-24T23:36:08.098Z,2.40
2018-12-24T23:38:51.388Z,2.40
2018-12-24T23:41:34.778Z,2.50
2018-12-24T23:44:17.372Z,2.50
2018-12-24T23:47:00.798Z,2.40
2018-12-24T23:49:44.191Z,2.40
2018-12-24T23:52:27.830Z,2.30
2018-12-24T23:55:11.160Z,2.30
2018-12-24T23:57:54.639Z,2.30
